Time;durP1;ratioP1;P1;durP2;ratioP2;P2;SDS_P1;SDS_P2;PMS_P1;PMS_P2;Temp;Humidity;BMP_temperature;BMP_pressure;BME280_temperature;BME280_humidity;BME280_pressure;Samples;Min_cycle;Max_cycle;Signal;HPM_P1;HPM_P2
2023/12/17 00:02:14;;;;;;;;;;;;;;;;;;;;;
2023/12/17 00:11:41;;;;;;;;;;;;;;;;;;;;;
2023/12/17 00:20:17;;;;;;;7.72;4.07;;;;;;;;;;4845357;29;20893;-87
2023/12/17 00:23:15;;;;;;;6.60;3.08;;;;;;;;;;4823839;29;20084;-87
2023/12/17 00:25:55;;;;;;;7.45;4.88;;;;;;;;;;4782516;29;20099;-87
2023/12/17 00:28:35;;;;;;;12.23;4.88;;;;;;;;;;4805336;29;20057;-87
2023/12/17 00:31:06;;;;;;;7.40;4.07;;;;;;;;;;4790518;29;20440;-87
2023/12/17 00:33:56;;;;;;;8.18;5.13;;;;;;;;;;4789731;29;20135;-87
2023/12/17 00:37:04;;;;;;;6.40;4.03;;;;;;;;;;4814617;29;20050;-87
2023/12/17 00:39:30;;;;;;;13.63;3.85;;;;;;;;;;4814284;29;20039;-87
2023/12/17 00:41:59;;;;;;;10.80;4.45;;;;;;;;;;4811783;29;20541;-87
2023/12/17 00:48:13;;;;;;;;;;;;;;;;;;;;;
2023/12/17 00:51:07;;;;;;;10.60;4.22;;;;;;;;;;4809413;29;20485;-87
2023/12/17 00:53:50;;;;;;;14.18;5.95;;;;;;;;;;4776221;30;20052;-88
2023/12/17 00:56:23;;;;;;;;;;;;;;;;;;4797494;29;20050;-87
2023/12/17 00:59:07;;;;;;;10.98;5.95;;;;;;;;;;4780401;30;20316;-87
2023/12/17 01:01:39;;;;;;;8.05;4.60;;;;;;;;;;4772623;30;20039;-86
2023/12/17 01:04:14;;;;;;;16.63;5.38;;;;;;;;;;4781204;30;20134;-87
2023/12/17 01:06:48;;;;;;;9.95;3.33;;;;;;;;;;4755398;30;20062;-87
2023/12/17 01:09:19;;;;;;;8.75;4.00;;;;;;;;;;4778285;29;20501;-87
2023/12/17 01:11:51;;;;;;;7.05;4.00;;;;;;;;;;4773068;30;20051;-87
2023/12/17 01:14:19;;;;;;;7.85;4.07;;;;;;;;;;4773495;30;20042;-87
2023/12/17 01:19:49;;;;;;;16.13;6.72;;;;;;;;;;4815730;29;20080;-87
2023/12/17 01:22:21;;;;;;;17.38;5.07;;;;;;;;;;4839437;29;20054;-87
2023/12/17 01:24:54;;;;;;;7.83;5.17;;;;;;;;;;4826437;29;20038;-87
2023/12/17 01:27:25;;;;;;;8.43;3.85;;;;;;;;;;4826465;29;20058;-87
2023/12/17 01:29:54;;;;;;;16.97;3.57;;;;;;;;;;4822946;29;20049;-87
2023/12/17 01:32:25;;;;;;;6.47;3.60;;;;;;;;;;4821801;29;20683;-87
2023/12/17 01:35:01;;;;;;;4.65;2.70;;;;;;;;;;4822632;29;20045;-87
2023/12/17 01:37:30;;;;;;;9.73;3.60;;;;;;;;;;4820276;29;20046;-87
2023/12/17 01:40:02;;;;;;;15.50;2.80;;;;;;;;;;4807088;29;20059;-87
2023/12/17 01:42:28;;;;;;;12.48;5.20;;;;;;;;;;4807608;29;20544;-84
2023/12/17 01:45:00;;;;;;;14.85;5.35;;;;;;;;;;4807717;29;20047;-87
2023/12/17 01:47:28;;;;;;;16.52;4.53;;;;;;;;;;4807104;29;20639;-87
2023/12/17 01:49:56;;;;;;;14.82;5.65;;;;;;;;;;4807785;29;20111;-87
2023/12/17 01:52:33;;;;;;;8.38;4.22;;;;;;;;;;4802600;29;20047;-86
2023/12/17 01:55:07;;;;;;;7.53;3.10;;;;;;;;;;4804723;29;20129;-87
2023/12/17 01:57:33;;;;;;;10.57;3.38;;;;;;;;;;4807628;29;20043;-86
2023/12/17 01:59:59;;;;;;;6.65;3.05;;;;;;;;;;4806593;29;20043;-87
2023/12/17 02:02:25;;;;;;;15.23;5.45;;;;;;;;;;4795444;29;20050;-87
2023/12/17 02:04:51;;;;;;;15.90;6.18;;;;;;;;;;4810105;29;20051;-87
2023/12/17 02:07:26;;;;;;;16.73;7.13;;;;;;;;;;4810239;29;20058;-87
2023/12/17 02:09:52;;;;;;;14.73;4.43;;;;;;;;;;4815539;29;20061;-86
2023/12/17 02:12:30;;;;;;;17.30;6.32;;;;;;;;;;4809717;29;20477;-87
2023/12/17 02:15:01;;;;;;;13.20;6.63;;;;;;;;;;4803201;29;20042;-87
2023/12/17 02:17:35;;;;;;;13.23;7.90;;;;;;;;;;4809507;29;20050;-87
2023/12/17 02:20:02;;;;;;;17.50;7.03;;;;;;;;;;4807473;29;20046;-87
2023/12/17 02:22:37;;;;;;;20.13;5.68;;;;;;;;;;4809976;29;20073;-87
2023/12/17 02:25:03;;;;;;;6.22;4.30;;;;;;;;;;4810227;29;20075;-87
2023/12/17 02:27:32;;;;;;;9.00;4.70;;;;;;;;;;4809716;29;20107;-88
2023/12/17 02:29:58;;;;;;;11.60;5.15;;;;;;;;;;4809099;29;20541;-87
2023/12/17 02:32:29;;;;;;;7.10;3.88;;;;;;;;;;4809452;29;20401;-87
2023/12/17 02:35:15;;;;;;;12.10;3.07;;;;;;;;;;4807823;29;20167;-87
2023/12/17 02:37:44;;;;;;;9.82;3.95;;;;;;;;;;4806850;29;20043;-87
2023/12/17 02:40:21;;;;;;;;;;;;;;;;;;;;;
2023/12/17 02:42:47;;;;;;;8.77;4.63;;;;;;;;;;4815918;29;20056;-87
2023/12/17 02:45:13;;;;;;;16.98;5.15;;;;;;;;;;4810923;29;20039;-87
2023/12/17 02:47:45;;;;;;;14.40;4.35;;;;;;;;;;4809522;29;20046;-87
2023/12/17 02:50:13;;;;;;;8.27;3.65;;;;;;;;;;4808784;29;20458;-87
2023/12/17 02:52:39;;;;;;;8.10;3.17;;;;;;;;;;4810911;29;20125;-87
2023/12/17 02:55:05;;;;;;;12.75;3.70;;;;;;;;;;4809077;29;20054;-87
2023/12/17 02:57:31;;;;;;;5.95;2.90;;;;;;;;;;4809842;29;20486;-87
2023/12/17 02:59:57;;;;;;;20.17;6.85;;;;;;;;;;4809605;29;20050;-87
2023/12/17 03:02:28;;;;;;;15.13;7.40;;;;;;;;;;4806103;29;20409;-87
2023/12/17 03:04:54;;;;;;;11.40;3.95;;;;;;;;;;4795809;29;20500;-87
2023/12/17 03:07:21;;;;;;;18.38;5.85;;;;;;;;;;4793268;29;20043;-87
2023/12/17 03:09:49;;;;;;;15.10;4.57;;;;;;;;;;4824267;29;20512;-87
2023/12/17 03:12:15;;;;;;;12.75;4.55;;;;;;;;;;4810638;29;20067;-88
2023/12/17 03:15:06;;;;;;;9.52;3.90;;;;;;;;;;4809488;29;20055;-87
2023/12/17 03:17:38;;;;;;;8.95;3.08;;;;;;;;;;4807078;29;20501;-87
2023/12/17 03:20:07;;;;;;;21.17;4.65;;;;;;;;;;4800827;29;20451;-87
2023/12/17 03:22:42;;;;;;;3.47;2.03;;;;;;;;;;4810070;29;20059;-87
2023/12/17 03:25:11;;;;;;;5.35;2.83;;;;;;;;;;4806037;29;20406;-87
2023/12/17 03:27:40;;;;;;;13.95;4.63;;;;;;;;;;4808317;29;20493;-87
2023/12/17 03:30:09;;;;;;;12.88;3.13;;;;;;;;;;4808641;29;20062;-87
2023/12/17 03:32:41;;;;;;;6.43;3.33;;;;;;;;;;4808576;29;20546;-87
2023/12/17 03:35:33;;;;;;;12.87;3.80;;;;;;;;;;4803140;29;20039;-84
2023/12/17 03:37:59;;;;;;;7.68;3.47;;;;;;;;;;4789804;29;20047;-85
2023/12/17 03:40:27;;;;;;;18.63;3.40;;;;;;;;;;4789134;29;20082;-84
2023/12/17 03:42:53;;;;;;;11.73;3.47;;;;;;;;;;4805602;29;20047;-85
2023/12/17 03:45:19;;;;;;;6.60;2.33;;;;;;;;;;4805616;29;20055;-84
2023/12/17 03:47:49;;;;;;;5.22;2.63;;;;;;;;;;4794295;29;20042;-84
2023/12/17 03:50:15;;;;;;;6.30;2.35;;;;;;;;;;4780620;29;20406;-87
2023/12/17 03:52:41;;;;;;;7.82;2.70;;;;;;;;;;4791433;29;20043;-87
2023/12/17 03:55:08;;;;;;;5.40;2.80;;;;;;;;;;4789136;29;20078;-87
2023/12/17 03:57:34;;;;;;;8.65;3.45;;;;;;;;;;4794376;29;20122;-86
2023/12/17 04:00:01;;;;;;;8.18;2.72;;;;;;;;;;4806780;29;20104;-86
2023/12/17 04:02:27;;;;;;;4.47;2.15;;;;;;;;;;4811865;29;20042;-88
2023/12/17 04:04:53;;;;;;;6.45;3.42;;;;;;;;;;4808113;29;20515;-87
2023/12/17 04:07:19;;;;;;;12.98;3.63;;;;;;;;;;4802485;29;20039;-88
2023/12/17 04:09:45;;;;;;;5.85;3.03;;;;;;;;;;4790324;29;20489;-87
2023/12/17 04:12:11;;;;;;;5.50;1.77;;;;;;;;;;4797487;29;20034;-87
2023/12/17 04:14:37;;;;;;;7.97;2.47;;;;;;;;;;4798645;29;20046;-87
2023/12/17 04:17:03;;;;;;;2.15;1.60;;;;;;;;;;4805289;29;20126;-87
2023/12/17 04:19:29;;;;;;;4.30;1.58;;;;;;;;;;4803994;29;20063;-86
2023/12/17 04:21:55;;;;;;;2.90;1.58;;;;;;;;;;4795959;29;20084;-87
2023/12/17 04:24:22;;;;;;;8.13;2.17;;;;;;;;;;4804579;29;20055;-86
2023/12/17 04:26:48;;;;;;;2.03;0.95;;;;;;;;;;4793970;29;20042;-87
2023/12/17 04:29:14;;;;;;;7.63;2.45;;;;;;;;;;4808672;29;20508;-87
2023/12/17 04:31:40;;;;;;;4.20;1.52;;;;;;;;;;4809163;29;20042;-87
2023/12/17 04:34:06;;;;;;;8.77;1.75;;;;;;;;;;4811060;29;20057;-87
2023/12/17 04:36:32;;;;;;;8.25;2.65;;;;;;;;;;4808498;29;20501;-87
2023/12/17 04:38:57;;;;;;;6.75;2.63;;;;;;;;;;4806215;29;20059;-86
2023/12/17 04:41:24;;;;;;;3.28;0.90;;;;;;;;;;4798949;29;20038;-87
2023/12/17 04:43:50;;;;;;;4.28;2.45;;;;;;;;;;4826479;29;20043;-86
2023/12/17 04:46:16;;;;;;;2.60;1.38;;;;;;;;;;4810199;29;20930;-87
2023/12/17 04:48:42;;;;;;;5.90;1.83;;;;;;;;;;4810378;29;20057;-87
2023/12/17 04:51:08;;;;;;;5.13;2.60;;;;;;;;;;4809511;29;20121;-86
2023/12/17 04:53:34;;;;;;;4.82;2.72;;;;;;;;;;4804279;29;20046;-86
2023/12/17 04:56:00;;;;;;;5.97;2.80;;;;;;;;;;4809676;29;20094;-87
2023/12/17 04:58:28;;;;;;;6.80;2.03;;;;;;;;;;4817777;29;20057;-86
2023/12/17 05:00:59;;;;;;;7.65;3.05;;;;;;;;;;4820119;29;20150;-87
2023/12/17 05:03:25;;;;;;;4.55;1.98;;;;;;;;;;4810509;29;20053;-86
2023/12/17 05:05:55;;;;;;;6.05;1.85;;;;;;;;;;4809503;29;20047;-87
2023/12/17 05:08:26;;;;;;;5.75;2.45;;;;;;;;;;4810141;29;20050;-87
2023/12/17 05:10:52;;;;;;;5.70;2.25;;;;;;;;;;4791933;29;20035;-87
2023/12/17 05:13:24;;;;;;;2.45;1.38;;;;;;;;;;4806414;29;20046;-87
2023/12/17 05:15:56;;;;;;;5.77;2.37;;;;;;;;;;4804068;29;20092;-87
2023/12/17 05:18:24;;;;;;;5.47;1.67;;;;;;;;;;4806519;29;20050;-86
2023/12/17 05:20:50;;;;;;;3.55;1.75;;;;;;;;;;4810513;29;20490;-87
2023/12/17 05:23:18;;;;;;;4.88;2.42;;;;;;;;;;4809446;29;20066;-86
2023/12/17 05:25:44;;;;;;;5.72;2.75;;;;;;;;;;4810069;29;20062;-87
2023/12/17 05:28:11;;;;;;;6.28;1.98;;;;;;;;;;4809468;29;20069;-87
2023/12/17 05:30:37;;;;;;;6.35;1.60;;;;;;;;;;4808368;29;20076;-87
2023/12/17 05:33:07;;;;;;;6.25;1.48;;;;;;;;;;4807471;29;20030;-87
2023/12/17 05:35:35;;;;;;;5.32;2.40;;;;;;;;;;4806304;29;20416;-87
2023/12/17 05:38:01;;;;;;;6.63;1.60;;;;;;;;;;4805802;29;20049;-88
2023/12/17 05:40:27;;;;;;;4.80;2.75;;;;;;;;;;4806765;29;20056;-87
2023/12/17 05:42:56;;;;;;;9.90;3.40;;;;;;;;;;4805425;29;20039;-87
2023/12/17 05:45:22;;;;;;;4.80;1.48;;;;;;;;;;4806067;29;20631;-87
2023/12/17 05:47:55;;;;;;;9.63;3.00;;;;;;;;;;4805821;29;20053;-87
2023/12/17 05:50:23;;;;;;;5.35;2.58;;;;;;;;;;4795612;29;20107;-88
2023/12/17 05:52:53;;;;;;;4.50;2.40;;;;;;;;;;4795146;29;20516;-88
2023/12/17 05:55:27;;;;;;;7.55;2.00;;;;;;;;;;4792448;29;20133;-88
2023/12/17 05:57:53;;;;;;;6.85;2.33;;;;;;;;;;4802849;29;20039;-88
2023/12/17 06:00:22;;;;;;;4.50;2.63;;;;;;;;;;4805371;29;20043;-88
2023/12/17 06:02:48;;;;;;;5.85;3.63;;;;;;;;;;4807650;29;20054;-87
2023/12/17 06:05:14;;;;;;;8.02;3.72;;;;;;;;;;4804510;29;20057;-87
2023/12/17 06:07:40;;;;;;;6.38;1.73;;;;;;;;;;4806519;29;20405;-87
2023/12/17 06:10:06;;;;;;;9.82;2.35;;;;;;;;;;4806849;29;20046;-87
2023/12/17 06:12:32;;;;;;;5.95;2.28;;;;;;;;;;4806588;29;20038;-87
2023/12/17 06:14:59;;;;;;;10.27;3.22;;;;;;;;;;4807008;29;20042;-87
2023/12/17 06:17:25;;;;;;;3.53;1.63;;;;;;;;;;4807598;29;20088;-87
2023/12/17 06:19:53;;;;;;;4.25;2.33;;;;;;;;;;4806417;29;20074;-87
2023/12/17 06:22:19;;;;;;;6.00;1.95;;;;;;;;;;4805485;29;20069;-87
2023/12/17 06:24:45;;;;;;;8.05;1.95;;;;;;;;;;4805950;29;20047;-87
2023/12/17 06:27:15;;;;;;;7.03;2.95;;;;;;;;;;4804396;29;20047;-87
2023/12/17 06:29:41;;;;;;;4.53;2.47;;;;;;;;;;4805508;29;20446;-88
2023/12/17 06:32:10;;;;;;;4.25;1.70;;;;;;;;;;4798450;29;20039;-87
2023/12/17 06:34:39;;;;;;;9.05;3.53;;;;;;;;;;4791321;29;20035;-87
2023/12/17 06:37:07;;;;;;;7.25;3.22;;;;;;;;;;4806000;29;20121;-88
2023/12/17 06:39:33;;;;;;;5.55;2.65;;;;;;;;;;4806463;29;20080;-87
2023/12/17 06:42:00;;;;;;;4.70;1.98;;;;;;;;;;4806351;29;20065;-87
2023/12/17 06:44:26;;;;;;;3.92;2.35;;;;;;;;;;4804235;29;20104;-87
2023/12/17 06:46:54;;;;;;;3.28;1.95;;;;;;;;;;4807690;29;20054;-87
2023/12/17 06:49:20;;;;;;;4.57;2.00;;;;;;;;;;4809476;29;20078;-88
2023/12/17 06:51:46;;;;;;;6.20;3.15;;;;;;;;;;4809234;29;20041;-87
2023/12/17 06:54:12;;;;;;;5.15;2.63;;;;;;;;;;4809334;29;20133;-87
2023/12/17 06:56:44;;;;;;;3.03;1.48;;;;;;;;;;4809527;29;20095;-87
2023/12/17 06:59:10;;;;;;;2.35;1.60;;;;;;;;;;4808663;29;20054;-87
2023/12/17 07:01:39;;;;;;;6.47;2.95;;;;;;;;;;4809154;29;20038;-87
2023/12/17 07:04:05;;;;;;;8.80;3.97;;;;;;;;;;4808849;29;20051;-87
2023/12/17 07:06:35;;;;;;;5.93;2.70;;;;;;;;;;4809285;29;20064;-87
2023/12/17 07:09:02;;;;;;;6.97;2.20;;;;;;;;;;4809210;29;20058;-87
2023/12/17 07:11:28;;;;;;;10.20;4.20;;;;;;;;;;4807326;29;20123;-87
2023/12/17 07:13:59;;;;;;;4.75;2.20;;;;;;;;;;4803581;29;20054;-87
2023/12/17 07:16:28;;;;;;;6.22;2.25;;;;;;;;;;4825024;29;20039;-87
2023/12/17 07:18:59;;;;;;;6.75;2.25;;;;;;;;;;4809333;29;20116;-87
2023/12/17 07:21:25;;;;;;;2.05;1.85;;;;;;;;;;4809682;29;20042;-86
2023/12/17 07:23:56;;;;;;;7.80;2.95;;;;;;;;;;4808979;29;20138;-87
2023/12/17 07:26:22;;;;;;;5.82;3.72;;;;;;;;;;4808230;29;20813;-86
2023/12/17 07:28:51;;;;;;;7.55;3.35;;;;;;;;;;4799179;24;20050;-83
2023/12/17 07:31:26;;;;;;;8.98;4.03;;;;;;;;;;4875318;24;20050;-85
2023/12/17 07:34:01;;;;;;;8.82;2.50;;;;;;;;;;4787136;29;20043;-85
2023/12/17 07:36:27;;;;;;;10.02;3.45;;;;;;;;;;4803881;29;20051;-86
2023/12/17 07:38:53;;;;;;;5.28;2.20;;;;;;;;;;4808590;29;20490;-83
2023/12/17 07:41:19;;;;;;;4.15;2.22;;;;;;;;;;4820835;29;20413;-82
2023/12/17 07:43:45;;;;;;;4.65;1.45;;;;;;;;;;4971234;24;20057;-85
2023/12/17 08:00:54;;;;;;;4.63;1.70;;;;;;;;;;4668205;30;20570;-82
2023/12/17 08:16:00;;;;;;;6.95;3.10;;;;;;;;;;4817546;29;20061;-84
2023/12/17 08:18:29;;;;;;;5.43;1.50;;;;;;;;;;4820793;29;20500;-85
2023/12/17 08:20:55;;;;;;;5.85;2.58;;;;;;;;;;4828661;29;20501;-84
2023/12/17 08:23:23;;;;;;;8.98;3.35;;;;;;;;;;4821332;29;20066;-84
2023/12/17 08:25:49;;;;;;;4.07;1.92;;;;;;;;;;4828628;29;20046;-84
2023/12/17 08:28:17;;;;;;;5.32;1.90;;;;;;;;;;4823778;29;20099;-85
2023/12/17 08:30:43;;;;;;;6.13;2.20;;;;;;;;;;4831619;29;20084;-85
2023/12/17 08:33:09;;;;;;;5.13;2.60;;;;;;;;;;4814534;29;20094;-85
2023/12/17 08:35:37;;;;;;;9.93;2.63;;;;;;;;;;4835785;29;20081;-85
2023/12/17 08:38:05;;;;;;;6.72;1.73;;;;;;;;;;4824847;29;20065;-85
2023/12/17 08:40:37;;;;;;;3.97;1.60;;;;;;;;;;4815514;29;20081;-85
2023/12/17 08:43:09;;;;;;;4.60;3.03;;;;;;;;;;4814798;29;20504;-85
2023/12/17 08:45:36;;;;;;;6.03;2.75;;;;;;;;;;4826467;29;20054;-84
2023/12/17 08:48:03;;;;;;;7.32;3.45;;;;;;;;;;4826807;29;20039;-84
2023/12/17 08:50:29;;;;;;;3.05;2.30;;;;;;;;;;4832447;29;20046;-85
2023/12/17 08:52:55;;;;;;;10.93;2.80;;;;;;;;;;4830794;29;20125;-85
2023/12/17 08:55:21;;;;;;;5.22;2.45;;;;;;;;;;4840791;29;20478;-85
2023/12/17 08:57:47;;;;;;;7.47;2.60;;;;;;;;;;4809932;29;20050;-85
2023/12/17 09:00:16;;;;;;;7.43;2.25;;;;;;;;;;4823491;29;20050;-85
2023/12/17 09:02:42;;;;;;;4.82;1.50;;;;;;;;;;4821640;29;20050;-85
2023/12/17 09:05:08;;;;;;;4.78;1.88;;;;;;;;;;4821327;29;20073;-85
2023/12/17 09:07:39;;;;;;;8.85;2.88;;;;;;;;;;4822393;29;20038;-85
2023/12/17 09:10:08;;;;;;;5.10;2.47;;;;;;;;;;4823070;29;20088;-84
2023/12/17 09:12:34;;;;;;;5.72;3.13;;;;;;;;;;4822555;29;20038;-85
2023/12/17 09:15:00;;;;;;;3.85;2.03;;;;;;;;;;4807261;29;20557;-85
2023/12/17 09:17:26;;;;;;;6.10;2.35;;;;;;;;;;4817829;29;20042;-85
2023/12/17 09:19:52;;;;;;;6.18;2.67;;;;;;;;;;4823018;29;20046;-85
2023/12/17 09:22:23;;;;;;;6.70;2.25;;;;;;;;;;4819388;29;20440;-85
2023/12/17 09:24:52;;;;;;;6.72;3.15;;;;;;;;;;4812141;29;20054;-85
2023/12/17 09:27:19;;;;;;;8.60;5.00;;;;;;;;;;4823142;29;20046;-85
2023/12/17 09:29:45;;;;;;;5.57;2.42;;;;;;;;;;4805891;29;20147;-85
2023/12/17 09:32:11;;;;;;;7.30;2.47;;;;;;;;;;4813497;29;20088;-85
2023/12/17 09:34:37;;;;;;;5.82;3.30;;;;;;;;;;4809988;29;20039;-85
2023/12/17 09:37:03;;;;;;;6.10;2.80;;;;;;;;;;4823217;29;20079;-85
2023/12/17 09:39:29;;;;;;;8.45;3.17;;;;;;;;;;4823170;29;20095;-85
2023/12/17 09:41:55;;;;;;;13.52;3.65;;;;;;;;;;4821256;29;20133;-85
2023/12/17 09:44:21;;;;;;;4.57;2.65;;;;;;;;;;4820228;29;20051;-85
2023/12/17 09:46:47;;;;;;;6.15;4.03;;;;;;;;;;4818885;29;20043;-85
2023/12/17 09:49:13;;;;;;;5.38;2.30;;;;;;;;;;4815455;29;20049;-85
2023/12/17 09:51:43;;;;;;;3.72;2.72;;;;;;;;;;4821655;29;20034;-85
2023/12/17 09:54:09;;;;;;;6.10;3.60;;;;;;;;;;4823143;29;20043;-85
2023/12/17 09:56:35;;;;;;;12.43;3.55;;;;;;;;;;4819279;29;20501;-85
2023/12/17 09:59:03;;;;;;;10.23;4.25;;;;;;;;;;4804349;29;20453;-86
2023/12/17 10:01:30;;;;;;;9.38;3.53;;;;;;;;;;4815632;29;20560;-85
2023/12/17 10:03:57;;;;;;;7.90;3.22;;;;;;;;;;4817058;29;20074;-85
2023/12/17 10:06:23;;;;;;;9.25;3.83;;;;;;;;;;4819856;29;20104;-85
2023/12/17 10:08:49;;;;;;;7.47;3.53;;;;;;;;;;4803985;29;20054;-86
2023/12/17 10:11:16;;;;;;;4.20;2.08;;;;;;;;;;4811208;29;20511;-85
2023/12/17 10:13:43;;;;;;;5.53;2.00;;;;;;;;;;4819047;29;20041;-86
2023/12/17 10:16:09;;;;;;;3.67;3.15;;;;;;;;;;4818959;29;20082;-86
2023/12/17 10:18:37;;;;;;;7.68;2.80;;;;;;;;;;4808134;29;20505;-86
2023/12/17 10:21:04;;;;;;;10.25;3.30;;;;;;;;;;4837803;29;20268;-86
2023/12/17 10:23:45;;;;;;;12.15;3.20;;;;;;;;;;4825843;29;20051;-86
2023/12/17 10:26:11;;;;;;;9.27;2.65;;;;;;;;;;4837456;29;20049;-85
2023/12/17 10:28:39;;;;;;;10.25;5.05;;;;;;;;;;4825649;29;20061;-86
2023/12/17 10:31:08;;;;;;;10.25;3.60;;;;;;;;;;4833497;29;20042;-86
2023/12/17 10:33:48;;;;;;;7.68;2.88;;;;;;;;;;4833469;29;20047;-86
2023/12/17 10:36:17;;;;;;;5.30;2.47;;;;;;;;;;4829920;29;20050;-86
2023/12/17 10:38:44;;;;;;;6.35;3.00;;;;;;;;;;4813951;29;20057;-86
2023/12/17 10:41:10;;;;;;;12.85;4.88;;;;;;;;;;4825648;29;20046;-85
2023/12/17 10:43:37;;;;;;;8.93;4.30;;;;;;;;;;4825551;29;20081;-85
2023/12/17 10:46:03;;;;;;;7.60;3.47;;;;;;;;;;4825745;29;20106;-86
2023/12/17 10:48:29;;;;;;;10.25;3.33;;;;;;;;;;4811023;29;20855;-86
2023/12/17 10:50:56;;;;;;;12.70;4.68;;;;;;;;;;4821893;29;20046;-86
2023/12/17 10:53:22;;;;;;;12.95;5.50;;;;;;;;;;4817159;29;20035;-86
2023/12/17 10:55:48;;;;;;;11.18;5.28;;;;;;;;;;4834439;29;20423;-86
2023/12/17 10:58:16;;;;;;;10.25;4.47;;;;;;;;;;4829426;29;20093;-85
2023/12/17 11:00:43;;;;;;;14.90;4.88;;;;;;;;;;4825458;29;20046;-85
2023/12/17 11:03:10;;;;;;;7.63;4.95;;;;;;;;;;4824085;29;20042;-85
2023/12/17 11:05:36;;;;;;;17.17;4.80;;;;;;;;;;4824952;29;20059;-85
2023/12/17 11:08:11;;;;;;;8.10;3.60;;;;;;;;;;4825648;29;20056;-85
2023/12/17 11:10:38;;;;;;;7.65;3.65;;;;;;;;;;4824943;29;20043;-85
2023/12/17 11:13:04;;;;;;;8.70;4.25;;;;;;;;;;4825840;29;20038;-85
2023/12/17 11:15:31;;;;;;;11.00;5.13;;;;;;;;;;4820215;29;20059;-85
2023/12/17 11:17:59;;;;;;;4.40;2.97;;;;;;;;;;4819869;29;20108;-85
2023/12/17 11:20:40;;;;;;;7.63;3.83;;;;;;;;;;4821577;29;20054;-85
2023/12/17 11:23:06;;;;;;;8.52;3.60;;;;;;;;;;4825164;29;20102;-85
2023/12/17 11:25:32;;;;;;;8.73;3.40;;;;;;;;;;4824615;29;20492;-85
2023/12/17 11:27:58;;;;;;;9.05;4.68;;;;;;;;;;4821858;29;20043;-85
2023/12/17 11:30:31;;;;;;;22.58;4.38;;;;;;;;;;4839518;29;20409;-85
2023/12/17 11:33:01;;;;;;;9.95;3.92;;;;;;;;;;4840337;29;20133;-85
2023/12/17 11:35:28;;;;;;;7.45;4.53;;;;;;;;;;4823643;29;20050;-86
2023/12/17 11:37:54;;;;;;;9.38;3.97;;;;;;;;;;4825067;29;20035;-86
2023/12/17 11:40:21;;;;;;;7.55;2.92;;;;;;;;;;4842364;29;20508;-85
2023/12/17 11:42:59;;;;;;;9.90;3.95;;;;;;;;;;4826428;29;20041;-85
2023/12/17 11:45:35;;;;;;;7.00;3.30;;;;;;;;;;4827102;29;20050;-85
2023/12/17 11:48:20;;;;;;;12.35;5.10;;;;;;;;;;4830493;29;20084;-86
2023/12/17 11:50:56;;;;;;;11.40;3.35;;;;;;;;;;4831478;29;20038;-85
2023/12/17 11:53:25;;;;;;;10.30;4.72;;;;;;;;;;4826415;29;20050;-85
2023/12/17 11:55:52;;;;;;;5.80;2.95;;;;;;;;;;4842265;29;20174;-85
2023/12/17 11:58:22;;;;;;;8.02;4.72;;;;;;;;;;4827123;29;20038;-85
2023/12/17 12:01:08;;;;;;;13.43;4.97;;;;;;;;;;4827954;29;20050;-85
2023/12/17 12:03:35;;;;;;;8.75;3.42;;;;;;;;;;4826065;29;20041;-85
2023/12/17 12:06:09;;;;;;;11.35;3.65;;;;;;;;;;4842340;29;20057;-86
2023/12/17 12:08:35;;;;;;;4.50;3.05;;;;;;;;;;4826824;29;20086;-86
2023/12/17 12:11:04;;;;;;;6.57;3.55;;;;;;;;;;4827231;29;20133;-85
2023/12/17 12:13:33;;;;;;;8.45;3.65;;;;;;;;;;4825325;29;20129;-86
2023/12/17 12:16:00;;;;;;;9.60;4.35;;;;;;;;;;4826743;29;20038;-85
2023/12/17 12:18:26;;;;;;;11.98;4.22;;;;;;;;;;4826428;29;20042;-86
2023/12/17 12:20:53;;;;;;;8.55;3.95;;;;;;;;;;4828321;29;20042;-86
2023/12/17 12:23:25;;;;;;;7.50;3.00;;;;;;;;;;4828560;29;20045;-86
2023/12/17 12:25:56;;;;;;;12.70;5.20;;;;;;;;;;4828892;29;20041;-85
2023/12/17 12:28:26;;;;;;;12.13;4.00;;;;;;;;;;4826162;29;20076;-85
2023/12/17 12:30:52;;;;;;;11.88;4.20;;;;;;;;;;4827443;29;20044;-85
2023/12/17 12:33:21;;;;;;;7.45;3.33;;;;;;;;;;4826637;29;20044;-86
2023/12/17 12:35:48;;;;;;;9.23;5.07;;;;;;;;;;4823796;29;20046;-86
2023/12/17 12:38:24;;;;;;;8.20;4.22;;;;;;;;;;4821256;29;20071;-86
2023/12/17 12:44:33;;;;;;;5.20;3.05;;;;;;;;;;4831975;29;20045;-87
2023/12/17 12:46:59;;;;;;;9.52;4.03;;;;;;;;;;4816820;29;20149;-88
2023/12/17 13:50:20;;;;;;;;;;;;;;;;;;;;;
2023/12/17 13:53:48;;;;;;;;;;;;;;;;;;;;;
2023/12/17 15:16:19;;;;;;;14.30;4.18;;;;;;;;;;4821214;29;20112;-84
2023/12/17 15:47:41;;;;;;;5.45;3.47;;;;;;;;;;4811421;29;20069;-82
2023/12/17 15:50:07;;;;;;;6.50;5.00;;;;;;;;;;4789615;29;20398;-83
2023/12/17 16:05:24;;;;;;;18.90;4.90;;;;;;;;;;4822360;24;20079;-81
2023/12/17 16:07:51;;;;;;;13.73;5.05;;;;;;;;;;4804273;24;20034;-86
2023/12/17 16:10:20;;;;;;;17.58;4.93;;;;;;;;;;4831234;29;20057;-85
2023/12/17 16:23:09;;;;;;;8.40;4.80;;;;;;;;;;4851752;24;20050;-82
2023/12/17 16:25:35;;;;;;;9.52;5.57;;;;;;;;;;4826032;29;20490;-81
2023/12/17 16:28:04;;;;;;;13.95;4.30;;;;;;;;;;4814406;29;20049;-82
2023/12/17 17:17:58;;;;;;;15.32;7.38;;;;;;;;;;4964019;24;20061;-83
2023/12/17 19:28:12;;;;;;;12.88;5.40;;;;;;;;;;4753225;30;20110;-85
